Terminal Aerodrome Forecast
Issued by NWS

Home | Current Version | Previous Version | Text Only | Print | Product List | Glossary On
Versions: 1 2 3 4 5 6 7 8 9 10 11 12 13 14 15 16 17 18 19 20 21 22 23 24 25
000
FTUS44 KOUN 191722
TAFLAW
TAF
KLAW 191722Z 1918/2018 16008KT P6SM BKN030 BKN250
     FM201100 14005KT P6SM VCSH BKN015 PROB30 2013/2018 4SM RA BR
      OVC010=

USA.gov is the U.S. government's official web portal to all federal, state and local government web resources and services.